sensor_id;sensor_type;location;lat;lon;timestamp;pressure;altitude;pressure_sealevel;temperature;humidity
42725;BME280;28369;44.046;23.014;2023-03-26T00:01:19;100584.75;;;20.89;49.18
42725;BME280;28369;44.046;23.014;2023-03-26T00:03:46;100583.41;;;21.14;47.90
42725;BME280;28369;44.046;23.014;2023-03-26T00:06:19;100102.31;;;17.91;48.38
42725;BME280;28369;44.046;23.014;2023-03-26T00:08:46;100618.66;;;20.96;48.32
42725;BME280;28369;44.046;23.014;2023-03-26T00:11:14;100321.31;;;19.22;48.16
42725;BME280;28369;44.046;23.014;2023-03-26T00:17:02;100603.41;;;20.54;47.69
42725;BME280;28369;44.046;23.014;2023-03-26T00:19:28;100561.81;;;20.67;46.58
42725;BME280;28369;44.046;23.014;2023-03-26T00:21:54;100489.75;;;20.10;46.60
42725;BME280;28369;44.046;23.014;2023-03-26T00:24:21;100484.53;;;20.24;45.86
42725;BME280;28369;44.046;23.014;2023-03-26T00:26:54;100336.91;;;18.96;45.91
42725;BME280;28369;44.046;23.014;2023-03-26T00:29:20;100624.00;;;20.96;46.09
42725;BME280;28369;44.046;23.014;2023-03-26T00:31:52;100336.25;;;18.94;45.70
42725;BME280;28369;44.046;23.014;2023-03-26T00:34:17;100268.53;;;18.39;46.08
42725;BME280;28369;44.046;23.014;2023-03-26T00:36:43;100553.06;;;20.23;46.09
42725;BME280;28369;44.046;23.014;2023-03-26T00:39:11;100638.53;;;20.80;45.68
42725;BME280;28369;44.046;23.014;2023-03-26T00:41:38;100557.22;;;20.26;45.29
42725;BME280;28369;44.046;23.014;2023-03-26T00:44:08;100643.63;;;20.75;45.34
42725;BME280;28369;44.046;23.014;2023-03-26T00:46:34;100294.81;;;18.27;45.30
42725;BME280;28369;44.046;23.014;2023-03-26T00:49:01;100567.59;;;20.14;45.08
42725;BME280;28369;44.046;23.014;2023-03-26T00:51:28;100506.28;;;19.92;45.01
42725;BME280;28369;44.046;23.014;2023-03-26T00:53:54;100403.19;;;19.06;44.56
42725;BME280;28369;44.046;23.014;2023-03-26T00:56:20;100593.50;;;20.48;44.97
42725;BME280;28369;44.046;23.014;2023-03-26T00:58:46;100326.53;;;18.65;44.82
42725;BME280;28369;44.046;23.014;2023-03-26T01:01:17;100626.81;;;20.52;44.90
42725;BME280;28369;44.046;23.014;2023-03-26T01:03:45;100516.97;;;19.77;44.96
42725;BME280;28369;44.046;23.014;2023-03-26T01:06:21;100609.91;;;20.17;45.61
42725;BME280;28369;44.046;23.014;2023-03-26T01:08:52;100523.56;;;19.96;44.98
42725;BME280;28369;44.046;23.014;2023-03-26T01:11:23;100560.00;;;20.17;45.03
42725;BME280;28369;44.046;23.014;2023-03-26T01:13:55;100276.47;;;18.32;45.08
42725;BME280;28369;44.046;23.014;2023-03-26T01:18:53;100405.66;;;19.08;45.53
42725;BME280;28369;44.046;23.014;2023-03-26T01:21:24;100546.06;;;20.15;45.30
42725;BME280;28369;44.046;23.014;2023-03-26T01:23:59;100661.81;;;20.93;45.16
42725;BME280;28369;44.046;23.014;2023-03-26T01:29:04;100712.56;;;20.64;44.44
42725;BME280;28369;44.046;23.014;2023-03-26T01:31:46;100508.25;;;19.40;45.11
42725;BME280;28369;44.046;23.014;2023-03-26T01:34:29;100541.56;;;19.73;45.22
42725;BME280;28369;44.046;23.014;2023-03-26T01:37:19;100679.59;;;20.29;45.19
42725;BME280;28369;44.046;23.014;2023-03-26T01:39:54;100671.72;;;20.42;44.95
42725;BME280;28369;44.046;23.014;2023-03-26T01:42:43;100345.50;;;18.04;44.76
42725;BME280;28369;44.046;23.014;2023-03-26T01:45:15;100620.00;;;20.22;44.62
42725;BME280;28369;44.046;23.014;2023-03-26T01:47:44;100622.31;;;20.03;44.93
42725;BME280;28369;44.046;23.014;2023-03-26T01:50:10;100429.22;;;18.38;45.42
42725;BME280;28369;44.046;23.014;2023-03-26T01:52:36;100661.78;;;20.08;45.27
42725;BME280;28369;44.046;23.014;2023-03-26T01:55:02;100665.19;;;19.80;45.86
42725;BME280;28369;44.046;23.014;2023-03-26T01:58:19;100491.66;;;18.72;45.78
42725;BME280;28369;44.046;23.014;2023-03-26T02:00:32;100564.94;;;18.97;45.81
42725;BME280;28369;44.046;23.014;2023-03-26T02:03:12;100305.50;;;17.52;45.69
42725;BME280;28369;44.046;23.014;2023-03-26T02:06:00;100592.81;;;18.95;46.21
42725;BME280;28369;44.046;23.014;2023-03-26T02:08:33;100421.72;;;17.96;45.80
42725;BME280;28369;44.046;23.014;2023-03-26T02:11:07;100567.59;;;18.53;46.33
42725;BME280;28369;44.046;23.014;2023-03-26T02:13:36;100584.25;;;18.99;45.65
42725;BME280;28369;44.046;23.014;2023-03-26T02:16:05;100546.50;;;18.66;44.96
42725;BME280;28369;44.046;23.014;2023-03-26T02:18:31;100317.78;;;17.68;44.56
42725;BME280;28369;44.046;23.014;2023-03-26T02:21:20;100347.78;;;18.07;43.98
42725;BME280;28369;44.046;23.014;2023-03-26T02:23:51;100633.69;;;19.54;44.68
42725;BME280;28369;44.046;23.014;2023-03-26T02:26:27;100321.94;;;17.18;45.29
42725;BME280;28369;44.046;23.014;2023-03-26T02:28:53;100393.41;;;17.27;45.55
42725;BME280;28369;44.046;23.014;2023-03-26T02:31:19;100633.34;;;18.67;45.94
42725;BME280;28369;44.046;23.014;2023-03-26T02:33:46;100692.84;;;19.12;45.95
42725;BME280;28369;44.046;23.014;2023-03-26T02:36:12;100678.03;;;18.95;46.07
42725;BME280;28369;44.046;23.014;2023-03-26T02:38:38;100695.59;;;19.04;46.04
42725;BME280;28369;44.046;23.014;2023-03-26T02:41:04;100612.50;;;18.56;45.94
42725;BME280;28369;44.046;23.014;2023-03-26T02:43:30;100408.34;;;17.05;45.95
42725;BME280;28369;44.046;23.014;2023-03-26T02:45:56;100708.47;;;19.01;45.65
42725;BME280;28369;44.046;23.014;2023-03-26T02:48:22;100695.78;;;18.88;46.04
42725;BME280;28369;44.046;23.014;2023-03-26T02:50:47;100384.34;;;17.22;45.52
42725;BME280;28369;44.046;23.014;2023-03-26T02:53:19;100704.56;;;19.03;45.97
42725;BME280;28369;44.046;23.014;2023-03-26T02:55:46;100645.22;;;18.79;45.51
42725;BME280;28369;44.046;23.014;2023-03-26T02:58:12;100731.84;;;18.90;46.22
42725;BME280;28369;44.046;23.014;2023-03-26T03:00:43;100611.81;;;18.24;45.94
42725;BME280;28369;44.046;23.014;2023-03-26T03:03:09;100377.78;;;16.55;46.41
42725;BME280;28369;44.046;23.014;2023-03-26T03:05:34;100379.34;;;16.72;46.23
42725;BME280;28369;44.046;23.014;2023-03-26T03:08:03;100699.16;;;18.96;46.10
42725;BME280;28369;44.046;23.014;2023-03-26T03:10:30;100683.13;;;18.81;46.11
42725;BME280;28369;44.046;23.014;2023-03-26T03:12:57;100580.81;;;17.61;47.62
42725;BME280;28369;44.046;23.014;2023-03-26T03:15:23;100527.53;;;17.00;48.25
42725;BME280;28369;44.046;23.014;2023-03-26T03:17:49;100416.31;;;16.42;47.70
42725;BME280;28369;44.046;23.014;2023-03-26T03:20:16;100366.66;;;16.20;47.46
42725;BME280;28369;44.046;23.014;2023-03-26T03:22:42;100711.41;;;18.44;47.09
42725;BME280;28369;44.046;23.014;2023-03-26T03:25:09;100670.84;;;17.65;47.94
42725;BME280;28369;44.046;23.014;2023-03-26T03:27:39;100593.88;;;17.17;48.04
42725;BME280;28369;44.046;23.014;2023-03-26T03:30:07;100536.72;;;16.81;47.75
42725;BME280;28369;44.046;23.014;2023-03-26T03:32:33;100748.75;;;17.73;48.35
42725;BME280;28369;44.046;23.014;2023-03-26T03:34:59;100740.03;;;17.88;48.36
42725;BME280;28369;44.046;23.014;2023-03-26T03:37:25;100672.91;;;17.54;47.28
42725;BME280;28369;44.046;23.014;2023-03-26T03:39:51;100750.91;;;18.09;47.07
42725;BME280;28369;44.046;23.014;2023-03-26T03:42:17;100716.09;;;17.88;47.10
42725;BME280;28369;44.046;23.014;2023-03-26T03:44:42;100749.75;;;18.12;46.84
42725;BME280;28369;44.046;23.014;2023-03-26T03:47:08;100632.97;;;17.39;46.65
42725;BME280;28369;44.046;23.014;2023-03-26T03:49:38;100620.88;;;17.60;45.82
42725;BME280;28369;44.046;23.014;2023-03-26T03:52:03;100669.69;;;17.67;46.04
42725;BME280;28369;44.046;23.014;2023-03-26T03:54:30;100456.78;;;16.36;45.96
42725;BME280;28369;44.046;23.014;2023-03-26T03:56:55;100764.19;;;18.41;46.05
42725;BME280;28369;44.046;23.014;2023-03-26T03:59:21;100521.63;;;16.82;45.45
42725;BME280;28369;44.046;23.014;2023-03-26T04:01:46;100738.44;;;18.33;45.16
42725;BME280;28369;44.046;23.014;2023-03-26T04:04:12;100649.59;;;17.65;45.15
42725;BME280;28369;44.046;23.014;2023-03-26T04:16:43;100690.91;;;18.07;44.34
42725;BME280;28369;44.046;23.014;2023-03-26T04:19:09;100645.94;;;17.97;44.04
42725;BME280;28369;44.046;23.014;2023-03-26T04:21:34;100746.84;;;18.68;44.00
42725;BME280;28369;44.046;23.014;2023-03-26T04:24:03;100747.38;;;18.40;44.28
42725;BME280;28369;44.046;23.014;2023-03-26T04:26:29;100470.19;;;16.83;43.96
42725;BME280;28369;44.046;23.014;2023-03-26T04:28:58;100528.38;;;17.01;44.49
42725;BME280;28369;44.046;23.014;2023-03-26T04:31:26;100770.69;;;18.38;44.60
42725;BME280;28369;44.046;23.014;2023-03-26T04:34:07;100709.50;;;18.15;44.41
42725;BME280;28369;44.046;23.014;2023-03-26T04:36:37;100643.94;;;17.99;44.20
42725;BME280;28369;44.046;23.014;2023-03-26T04:39:09;100602.81;;;18.02;43.30
42725;BME280;28369;44.046;23.014;2023-03-26T04:41:35;100541.13;;;18.06;42.10
42725;BME280;28369;44.046;23.014;2023-03-26T04:44:01;100650.75;;;18.93;41.75
42725;BME280;28369;44.046;23.014;2023-03-26T04:46:27;100643.88;;;19.13;41.15
42725;BME280;28369;44.046;23.014;2023-03-26T04:56:14;100778.03;;;20.17;40.50
42725;BME280;28369;44.046;23.014;2023-03-26T04:58:47;100744.13;;;19.96;40.87
42725;BME280;28369;44.046;23.014;2023-03-26T05:01:24;100691.44;;;19.46;40.92
42725;BME280;28369;44.046;23.014;2023-03-26T05:03:53;100541.13;;;18.06;41.96
42725;BME280;28369;44.046;23.014;2023-03-26T05:06:18;100779.09;;;19.11;42.86
42725;BME280;28369;44.046;23.014;2023-03-26T05:08:44;100776.75;;;18.70;43.46
42725;BME280;28369;44.046;23.014;2023-03-26T05:11:10;100691.84;;;17.91;44.38
42725;BME280;28369;44.046;23.014;2023-03-26T05:13:36;100431.00;;;16.22;44.75
42725;BME280;28369;44.046;23.014;2023-03-26T05:16:02;100760.34;;;18.43;44.38
42725;BME280;28369;44.046;23.014;2023-03-26T05:18:27;100671.22;;;17.93;44.89
42725;BME280;28369;44.046;23.014;2023-03-26T05:20:53;100740.34;;;18.47;44.50
42725;BME280;28369;44.046;23.014;2023-03-26T05:23:21;100514.44;;;16.99;44.90
42725;BME280;28369;44.046;23.014;2023-03-26T05:25:47;100776.75;;;18.70;45.17
42725;BME280;28369;44.046;23.014;2023-03-26T05:28:12;100507.84;;;16.86;45.07
42725;BME280;28369;44.046;23.014;2023-03-26T05:30:38;100433.38;;;16.80;44.59
42725;BME280;28369;44.046;23.014;2023-03-26T05:33:04;100631.44;;;18.23;44.27
42725;BME280;28369;44.046;23.014;2023-03-26T05:35:30;100632.16;;;17.93;44.68
42725;BME280;28369;44.046;23.014;2023-03-26T05:37:56;100504.38;;;17.40;44.41
42725;BME280;28369;44.046;23.014;2023-03-26T05:40:21;100537.69;;;17.74;44.07
42725;BME280;28369;44.046;23.014;2023-03-26T05:42:47;100656.69;;;18.04;44.73
42725;BME280;28369;44.046;23.014;2023-03-26T05:45:13;100706.50;;;18.94;43.95
42725;BME280;28369;44.046;23.014;2023-03-26T05:47:39;100757.34;;;19.38;43.34
42725;BME280;28369;44.046;23.014;2023-03-26T05:50:06;100554.66;;;18.50;43.06
42725;BME280;28369;44.046;23.014;2023-03-26T05:52:32;100707.91;;;19.35;43.42
42725;BME280;28369;44.046;23.014;2023-03-26T05:54:58;100721.03;;;19.22;43.64
42725;BME280;28369;44.046;23.014;2023-03-26T05:57:23;100464.56;;;17.78;43.38
42725;BME280;28369;44.046;23.014;2023-03-26T05:59:53;100625.72;;;18.64;42.85
42725;BME280;28369;44.046;23.014;2023-03-26T06:02:20;100593.22;;;18.69;42.61
42725;BME280;28369;44.046;23.014;2023-03-26T06:04:45;100648.13;;;19.59;42.20
42725;BME280;28369;44.046;23.014;2023-03-26T06:07:11;100678.31;;;19.81;41.36
42725;BME280;28369;44.046;23.014;2023-03-26T06:09:38;100649.47;;;20.13;40.59
42725;BME280;28369;44.046;23.014;2023-03-26T06:12:08;100696.81;;;20.05;41.49
42725;BME280;28369;44.046;23.014;2023-03-26T06:14:34;100647.78;;;20.06;40.92
42725;BME280;28369;44.046;23.014;2023-03-26T06:17:00;100717.34;;;20.69;41.19
42725;BME280;28369;44.046;23.014;2023-03-26T06:19:26;100656.44;;;20.08;41.24
42725;BME280;28369;44.046;23.014;2023-03-26T06:21:54;100427.97;;;18.70;41.44
42725;BME280;28369;44.046;23.014;2023-03-26T06:24:20;100650.50;;;20.34;40.99
42725;BME280;28369;44.046;23.014;2023-03-26T06:26:46;100789.50;;;20.97;41.21
42725;BME280;28369;44.046;23.014;2023-03-26T06:29:13;100248.88;;;17.37;41.69
42725;BME280;28369;44.046;23.014;2023-03-26T06:31:40;100472.75;;;18.81;40.78
42725;BME280;28369;44.046;23.014;2023-03-26T06:34:06;100240.03;;;17.81;40.52
42725;BME280;28369;44.046;23.014;2023-03-26T06:36:32;100616.78;;;19.83;40.81
42725;BME280;28369;44.046;23.014;2023-03-26T06:38:57;100750.00;;;20.93;40.42
42725;BME280;28369;44.046;23.014;2023-03-26T06:41:23;100802.66;;;21.27;40.58
42725;BME280;28369;44.046;23.014;2023-03-26T06:43:49;100510.66;;;19.13;39.35
42725;BME280;28369;44.046;23.014;2023-03-26T06:46:14;100492.13;;;19.27;39.14
42725;BME280;28369;44.046;23.014;2023-03-26T06:48:41;100818.69;;;21.27;38.85
42725;BME280;28369;44.046;23.014;2023-03-26T06:51:10;100491.84;;;19.00;38.93
42725;BME280;28369;44.046;23.014;2023-03-26T06:53:36;100669.53;;;20.52;38.62
42725;BME280;28369;44.046;23.014;2023-03-26T06:56:01;100821.09;;;21.44;39.58
42725;BME280;28369;44.046;23.014;2023-03-26T06:58:28;100761.91;;;21.53;38.87
42725;BME280;28369;44.046;23.014;2023-03-26T07:00:54;100810.59;;;21.42;37.96
42725;BME280;28369;44.046;23.014;2023-03-26T07:03:21;100816.47;;;22.01;38.55
42725;BME280;28369;44.046;23.014;2023-03-26T07:05:48;100699.22;;;20.93;37.86
42725;BME280;28369;44.046;23.014;2023-03-26T07:11:35;100676.03;;;21.35;38.61
42725;BME280;28369;44.046;23.014;2023-03-26T07:17:23;100750.97;;;21.48;37.75
42725;BME280;28369;44.046;23.014;2023-03-26T07:23:14;100522.91;;;19.94;36.80
42725;BME280;28369;44.046;23.014;2023-03-26T07:29:19;100712.97;;;21.24;37.55
42725;BME280;28369;44.046;23.014;2023-03-26T07:35:25;100552.59;;;20.69;37.10
42725;BME280;28369;44.046;23.014;2023-03-26T07:41:44;100753.22;;;21.86;36.00
42725;BME280;28369;44.046;23.014;2023-03-26T07:54:04;100707.84;;;21.65;35.45
42725;BME280;28369;44.046;23.014;2023-03-26T08:00:13;100671.47;;;21.29;35.06
42725;BME280;28369;44.046;23.014;2023-03-26T08:19:39;100755.66;;;22.56;33.80
42725;BME280;28369;44.046;23.014;2023-03-26T08:26:08;100831.88;;;22.60;34.31
42725;BME280;28369;44.046;23.014;2023-03-26T08:32:51;100602.50;;;21.66;32.91
42725;BME280;28369;44.046;23.014;2023-03-26T11:15:56;100545.38;;;24.76;24.76
42725;BME280;28369;44.046;23.014;2023-03-26T12:36:53;100327.34;;;24.72;21.12
42725;BME280;28369;44.046;23.014;2023-03-26T12:39:39;100557.75;;;26.10;20.27
42725;BME280;28369;44.046;23.014;2023-03-26T12:42:50;100343.34;;;24.79;20.85
42725;BME280;28369;44.046;23.014;2023-03-26T12:45:06;100556.97;;;26.10;20.81
42725;BME280;28369;44.046;23.014;2023-03-26T12:47:36;100470.13;;;25.72;20.23
42725;BME280;28369;44.046;23.014;2023-03-26T12:50:02;100472.03;;;25.17;20.17
42725;BME280;28369;44.046;23.014;2023-03-26T12:52:54;100306.41;;;24.86;20.02
42725;BME280;28369;44.046;23.014;2023-03-26T12:58:25;100538.66;;;26.00;19.73
42725;BME280;28369;44.046;23.014;2023-03-26T13:35:46;100522.16;;;26.20;18.85
42725;BME280;28369;44.046;23.014;2023-03-26T13:44:13;100489.63;;;26.10;19.47
42725;BME280;28369;44.046;23.014;2023-03-26T13:46:49;100434.56;;;25.82;19.10
42725;BME280;28369;44.046;23.014;2023-03-26T13:49:32;100487.78;;;26.51;19.07
42725;BME280;28369;44.046;23.014;2023-03-26T13:52:22;100482.31;;;26.34;19.09
42725;BME280;28369;44.046;23.014;2023-03-26T14:00:26;100478.94;;;26.15;18.65
42725;BME280;28369;44.046;23.014;2023-03-26T14:03:28;100401.44;;;25.93;18.21
42725;BME280;28369;44.046;23.014;2023-03-26T14:05:59;100485.69;;;26.41;18.30
42725;BME280;28369;44.046;23.014;2023-03-26T14:08:38;100314.53;;;24.98;18.74
42725;BME280;28369;44.046;23.014;2023-03-26T14:11:13;100424.63;;;25.70;19.22
42725;BME280;28369;44.046;23.014;2023-03-26T14:13:45;100422.03;;;25.99;18.55
42725;BME280;28369;44.046;23.014;2023-03-26T14:18:51;100468.75;;;26.17;18.52
42725;BME280;28369;44.046;23.014;2023-03-26T14:24:40;100307.88;;;25.48;19.09
42725;BME280;28369;44.046;23.014;2023-03-26T14:40:27;100457.84;;;26.24;19.29
42725;BME280;28369;44.046;23.014;2023-03-26T14:48:33;100436.91;;;26.14;19.36
42725;BME280;28369;44.046;23.014;2023-03-26T14:53:47;100435.94;;;26.61;19.14
42725;BME280;28369;44.046;23.014;2023-03-26T14:56:39;100436.44;;;26.17;19.11
42725;BME280;28369;44.046;23.014;2023-03-26T15:11:45;100434.88;;;26.33;19.55
42725;BME280;28369;44.046;23.014;2023-03-26T16:18:56;100422.63;;;24.88;22.73
42725;BME280;28369;44.046;23.014;2023-03-26T17:56:45;99971.44;;;21.00;26.44
42725;BME280;28369;44.046;23.014;2023-03-26T20:09:54;100273.19;;;20.75;32.53
42725;BME280;28369;44.046;23.014;2023-03-26T20:12:23;99955.28;;;18.68;32.38
42725;BME280;28369;44.046;23.014;2023-03-26T20:14:49;100268.63;;;20.62;32.57
42725;BME280;28369;44.046;23.014;2023-03-26T20:17:17;100144.59;;;19.63;32.85
42725;BME280;28369;44.046;23.014;2023-03-26T20:19:45;99956.22;;;18.46;32.57
42725;BME280;28369;44.046;23.014;2023-03-26T20:22:13;99819.34;;;17.44;33.70
42725;BME280;28369;44.046;23.014;2023-03-26T20:24:39;100002.41;;;18.74;33.58
42725;BME280;28369;44.046;23.014;2023-03-26T20:27:06;100254.84;;;20.45;32.95
42725;BME280;28369;44.046;23.014;2023-03-26T20:29:31;100118.34;;;19.60;33.02
42725;BME280;28369;44.046;23.014;2023-03-26T20:31:57;100258.13;;;20.47;33.15
42725;BME280;28369;44.046;23.014;2023-03-26T20:34:23;100248.66;;;20.38;33.01
42725;BME280;28369;44.046;23.014;2023-03-26T20:40:11;100057.06;;;19.05;33.51
42725;BME280;28369;44.046;23.014;2023-03-26T20:46:00;100163.38;;;19.90;33.54
42725;BME280;28369;44.046;23.014;2023-03-26T20:51:48;99848.00;;;18.19;33.81
42725;BME280;28369;44.046;23.014;2023-03-26T20:57:36;100073.34;;;19.30;34.29
42725;BME280;28369;44.046;23.014;2023-03-26T21:00:01;99858.75;;;17.12;35.38
42725;BME280;28369;44.046;23.014;2023-03-26T21:02:33;99952.13;;;17.37;35.57
42725;BME280;28369;44.046;23.014;2023-03-26T21:04:58;99897.41;;;17.43;35.18
42725;BME280;28369;44.046;23.014;2023-03-26T21:07:24;99908.53;;;17.82;35.02
42725;BME280;28369;44.046;23.014;2023-03-26T21:09:51;99820.13;;;17.66;35.64
42725;BME280;28369;44.046;23.014;2023-03-26T21:15:39;99842.78;;;18.39;36.44
42725;BME280;28369;44.046;23.014;2023-03-26T21:18:05;99810.19;;;18.23;35.89
42725;BME280;28369;44.046;23.014;2023-03-26T21:20:31;100023.78;;;19.56;35.19
42725;BME280;28369;44.046;23.014;2023-03-26T21:25:39;99854.63;;;19.05;34.43
42725;BME280;28369;44.046;23.014;2023-03-26T21:33:53;100005.78;;;20.11;34.11
42725;BME280;28369;44.046;23.014;2023-03-26T21:39:41;100042.13;;;20.06;35.83
42725;BME280;28369;44.046;23.014;2023-03-26T21:42:10;99737.31;;;18.11;35.81
42725;BME280;28369;44.046;23.014;2023-03-26T21:44:36;99717.94;;;18.30;35.57
42725;BME280;28369;44.046;23.014;2023-03-26T21:47:03;99855.25;;;19.27;34.68
42725;BME280;28369;44.046;23.014;2023-03-26T21:52:51;99856.50;;;19.31;33.78
42725;BME280;28369;44.046;23.014;2023-03-26T22:06:09;100117.72;;;21.25;34.31
42725;BME280;28369;44.046;23.014;2023-03-26T22:15:49;99763.88;;;18.99;34.54
42725;BME280;28369;44.046;23.014;2023-03-26T22:21:37;99978.75;;;20.73;34.58
42725;BME280;28369;44.046;23.014;2023-03-26T22:27:26;99971.31;;;20.16;34.66
42725;BME280;28369;44.046;23.014;2023-03-26T22:33:14;99744.56;;;18.51;34.50
42725;BME280;28369;44.046;23.014;2023-03-26T22:35:42;99783.50;;;18.65;34.03
42725;BME280;28369;44.046;23.014;2023-03-26T22:38:09;99663.16;;;17.81;34.43
42725;BME280;28369;44.046;23.014;2023-03-26T22:40:36;100079.03;;;20.55;34.92
42725;BME280;28369;44.046;23.014;2023-03-26T22:43:03;99683.66;;;17.94;34.81
42725;BME280;28369;44.046;23.014;2023-03-26T22:45:28;100023.44;;;19.99;34.50
42725;BME280;28369;44.046;23.014;2023-03-26T22:47:55;100089.09;;;20.40;34.76
42725;BME280;28369;44.046;23.014;2023-03-26T22:50:22;99947.09;;;19.71;34.40
42725;BME280;28369;44.046;23.014;2023-03-26T22:52:48;100001.88;;;20.27;34.23
42725;BME280;28369;44.046;23.014;2023-03-26T22:55:13;100065.72;;;20.35;34.21
42725;BME280;28369;44.046;23.014;2023-03-26T22:57:41;99760.81;;;18.07;33.51
42725;BME280;28369;44.046;23.014;2023-03-26T23:00:09;99770.91;;;18.25;33.12
42725;BME280;28369;44.046;23.014;2023-03-26T23:02:45;100054.38;;;20.67;32.65
42725;BME280;28369;44.046;23.014;2023-03-26T23:05:12;99698.69;;;18.69;31.96
42725;BME280;28369;44.046;23.014;2023-03-26T23:07:37;99904.78;;;20.22;31.89
42725;BME280;28369;44.046;23.014;2023-03-26T23:10:04;100051.72;;;21.19;32.07
42725;BME280;28369;44.046;23.014;2023-03-26T23:15:58;99891.97;;;19.45;35.51
42725;BME280;28369;44.046;23.014;2023-03-26T23:18:24;99887.22;;;19.80;35.64
42725;BME280;28369;44.046;23.014;2023-03-26T23:20:55;99599.72;;;17.71;35.77
42725;BME280;28369;44.046;23.014;2023-03-26T23:23:28;99758.91;;;18.56;36.41
42725;BME280;28369;44.046;23.014;2023-03-26T23:25:54;100006.56;;;20.38;35.67
42725;BME280;28369;44.046;23.014;2023-03-26T23:28:23;99769.97;;;18.80;35.49
42725;BME280;28369;44.046;23.014;2023-03-26T23:30:53;99868.34;;;19.62;35.06
42725;BME280;28369;44.046;23.014;2023-03-26T23:33:24;99711.00;;;18.70;34.51
42725;BME280;28369;44.046;23.014;2023-03-26T23:35:53;99169.69;;;15.11;34.78
42725;BME280;28369;44.046;23.014;2023-03-26T23:38:28;99735.19;;;18.75;34.91
42725;BME280;28369;44.046;23.014;2023-03-26T23:40:55;99720.81;;;18.82;34.71
42725;BME280;28369;44.046;23.014;2023-03-26T23:43:41;99969.78;;;20.47;34.90
42725;BME280;28369;44.046;23.014;2023-03-26T23:46:08;99487.81;;;17.19;35.13
42725;BME280;28369;44.046;23.014;2023-03-26T23:48:37;99974.97;;;20.29;35.42
42725;BME280;28369;44.046;23.014;2023-03-26T23:51:06;99964.53;;;20.14;35.17
42725;BME280;28369;44.046;23.014;2023-03-26T23:53:34;99562.41;;;17.31;35.62
42725;BME280;28369;44.046;23.014;2023-03-26T23:56:00;99959.63;;;20.04;35.63
42725;BME280;28369;44.046;23.014;2023-03-26T23:58:27;99624.56;;;17.99;35.66
